Página principal
METAR-TAF:

METAR-TAF

Aeroportos :

Tóquio-Haneda, Japão

Aeroporto Internacional de Tóquio

latitude: 35-33N, longitude: 139-47E, altura: 5 m

Observação actual do tempo

O boletim foi feito há 31 minutos, às 14:00 UTC
Vento 6 kt de nordeste
Temperatura 21°C
Humidade 78%
Pressão 1015 hPa
Visibilidade 10 km ou mais
Poucas nuvensa uma altura de 1500 ft
Nuvens fragmentadas

METAR: RJTT 231400Z 04006KT 9999 FEW015 BKN/// 21/17 Q1015 NOSIG RMK 1CU015 A2998

Hora: 23:31 (14:31 UTC)

Previsão

O boletim foi feito há 3 horas e 26 minutos, às 11:05 UTC
Previsão válida de 23 às 12 UTC a 24 às 18 UTC
Vento 6 kt de nordeste
Visibilidade 10 km ou mais
Poucas nuvensa uma altura de 2000 ft
Tornando-se
de 23 às 22 UTC a 24 às 00 UTC
Vento 6 kt de es-sudeste

TAF: RJTT 231105Z 2312/2418 04006KT 9999 FEW020 BECMG 2322/2400 12006KT

Observações e previsões do tempo de mais de 4000 aeroportos (mensagens METAR e TAF).

As estações disponíveis são os pontos amarelos e vermelhos sobre o mapa.

Mova o rato sobre o mapa para ver o nome da estação.

Depois clique no ponto para visualizar as observações e previsões meteorológicas.

Para alterar o mapa : clique nos botões verdes com uma cruz preta para aumentar o zoom; no botão verde com uma pitada de zoom; ou nas setas verdes para mapas adjacentes.


METAR-TAF: